Time;durP1;ratioP1;P1;durP2;ratioP2;P2;SDS_P1;SDS_P2;PMS_P1;PMS_P2;Temp;Humidity;BMP_temperature;BMP_pressure;BME280_temperature;BME280_humidity;BME280_pressure;Samples;Min_cycle;Max_cycle;Signal;HPM_P1;HPM_P2
2023/12/23 00:02:08;;;;;;;1.60;0.57;;;20.80;39.60;;;;;;5053712;28;20106;-56
2023/12/23 00:04:34;;;;;;;2.25;0.65;;;20.90;39.70;;;;;;5039478;28;20540;-56
2023/12/23 00:06:59;;;;;;;1.13;0.65;;;20.90;39.70;;;;;;5035070;28;20105;-60
2023/12/23 00:09:25;;;;;;;1.30;0.47;;;20.80;39.70;;;;;;5054646;28;20021;-54
2023/12/23 00:11:51;;;;;;;1.58;0.47;;;20.80;39.70;;;;;;5060673;28;20111;-56
2023/12/23 00:14:17;;;;;;;1.17;0.40;;;20.80;39.70;;;;;;5058748;28;20036;-55
2023/12/23 00:16:43;;;;;;;3.03;0.65;;;20.80;39.70;;;;;;5040460;28;20041;-55
2023/12/23 00:19:09;;;;;;;2.08;0.77;;;20.80;39.70;;;;;;5058912;28;20025;-57
2023/12/23 00:21:35;;;;;;;1.13;0.60;;;20.80;39.70;;;;;;5058886;28;20037;-56
2023/12/23 00:24:01;;;;;;;1.90;0.75;;;20.80;39.80;;;;;;5063802;28;20040;-57
2023/12/23 00:26:27;;;;;;;3.83;0.70;;;20.80;39.80;;;;;;5056352;28;20033;-56
2023/12/23 00:28:53;;;;;;;2.10;0.82;;;20.80;39.80;;;;;;5061767;28;20451;-56
2023/12/23 00:31:18;;;;;;;2.53;0.57;;;20.80;39.80;;;;;;5038586;28;20126;-56
2023/12/23 00:33:47;;;;;;;1.58;0.60;;;20.80;39.80;;;;;;5038851;28;20029;-55
2023/12/23 00:36:13;;;;;;;1.08;0.47;;;20.80;39.90;;;;;;5053561;28;20047;-56
2023/12/23 00:38:39;;;;;;;1.13;0.57;;;20.80;39.90;;;;;;5038123;28;20049;-57
2023/12/23 00:41:05;;;;;;;2.28;0.52;;;20.80;39.90;;;;;;5041672;28;20079;-54
2023/12/23 00:43:31;;;;;;;3.03;0.65;;;20.80;39.90;;;;;;5033803;28;20068;-54
2023/12/23 00:45:56;;;;;;;1.05;0.45;;;20.70;39.90;;;;;;5035150;28;20037;-55
2023/12/23 00:48:22;;;;;;;1.75;0.57;;;20.70;39.90;;;;;;5037789;28;20029;-58
2023/12/23 00:50:48;;;;;;;1.58;0.50;;;20.80;39.90;;;;;;5036051;28;20024;-52
2023/12/23 00:53:15;;;;;;;1.52;0.55;;;20.70;39.90;;;;;;5016222;28;20040;-54
2023/12/23 00:55:41;;;;;;;1.48;0.70;;;20.80;39.90;;;;;;5033027;28;20107;-56
2023/12/23 00:58:07;;;;;;;0.75;0.50;;;20.70;39.90;;;;;;5029553;28;20065;-58
2023/12/23 01:00:33;;;;;;;1.35;0.55;;;20.70;39.90;;;;;;5036834;28;20044;-55
2023/12/23 01:02:59;;;;;;;1.65;0.50;;;20.70;40.00;;;;;;5039230;28;20044;-57
2023/12/23 01:05:25;;;;;;;1.65;0.70;;;20.70;40.00;;;;;;5035445;28;20021;-56
2023/12/23 01:07:50;;;;;;;1.80;0.80;;;20.70;40.00;;;;;;5036123;28;20388;-56
2023/12/23 01:10:16;;;;;;;1.90;0.63;;;20.70;40.00;;;;;;5038059;28;20029;-56
2023/12/23 01:12:42;;;;;;;2.17;0.70;;;20.70;40.10;;;;;;5036021;28;20519;-55
2023/12/23 01:15:08;;;;;;;1.20;0.52;;;20.70;40.10;;;;;;5036254;28;20021;-53
2023/12/23 01:17:34;;;;;;;1.48;0.50;;;20.70;40.10;;;;;;5038424;28;20037;-55
2023/12/23 01:20:00;;;;;;;1.35;0.60;;;20.70;40.10;;;;;;5037785;28;20172;-56
2023/12/23 01:22:26;;;;;;;1.23;0.40;;;20.70;40.10;;;;;;5039853;28;20033;-55
2023/12/23 01:24:52;;;;;;;1.60;0.50;;;20.70;40.10;;;;;;5038325;28;20030;-56
2023/12/23 01:27:17;;;;;;;2.40;0.80;;;20.70;40.10;;;;;;5041372;28;20028;-54
2023/12/23 01:29:43;;;;;;;2.03;0.60;;;20.60;40.10;;;;;;5037227;28;20041;-55
2023/12/23 01:32:09;;;;;;;1.38;0.40;;;20.60;40.10;;;;;;5043072;28;20329;-54
2023/12/23 01:34:35;;;;;;;1.50;0.63;;;20.70;40.10;;;;;;5037065;28;20025;-57
2023/12/23 01:37:01;;;;;;;1.27;0.40;;;20.70;40.20;;;;;;5054618;28;20375;-56
2023/12/23 01:39:28;;;;;;;0.90;0.40;;;20.70;40.20;;;;;;5043599;28;20029;-56
2023/12/23 01:41:53;;;;;;;1.67;0.50;;;20.60;40.20;;;;;;5063485;28;20044;-54
2023/12/23 01:44:19;;;;;;;1.70;0.70;;;20.70;40.20;;;;;;5067879;28;20104;-57
2023/12/23 01:46:46;;;;;;;1.65;0.52;;;20.70;40.20;;;;;;5045749;28;20039;-53
2023/12/23 01:49:12;;;;;;;2.22;0.50;;;20.60;40.20;;;;;;5059277;28;20025;-52
2023/12/23 01:51:38;;;;;;;1.63;0.60;;;20.60;40.20;;;;;;5061691;28;20060;-54
2023/12/23 01:54:05;;;;;;;3.35;0.70;;;20.60;40.30;;;;;;5040228;28;20032;-52
2023/12/23 01:56:34;;;;;;;0.65;0.40;;;20.60;40.30;;;;;;5037493;28;20052;-55
2023/12/23 01:59:02;;;;;;;1.42;0.68;;;20.60;40.30;;;;;;5042905;28;20151;-57
2023/12/23 02:01:31;;;;;;;1.80;0.77;;;20.60;40.40;;;;;;5058585;28;20041;-52
2023/12/23 02:03:57;;;;;;;2.92;0.77;;;20.60;40.40;;;;;;5043053;28;20098;-57
2023/12/23 02:06:23;;;;;;;2.17;0.50;;;20.60;40.40;;;;;;5044817;28;20032;-51
2023/12/23 02:08:49;;;;;;;3.55;0.50;;;20.60;40.50;;;;;;5041790;28;20021;-56
2023/12/23 02:11:45;;;;;;;2.90;0.75;;;20.60;40.50;;;;;;5040585;28;20119;-55
2023/12/23 02:14:33;;;;;;;0.82;0.40;;;20.60;40.50;;;;;;5035007;28;20055;-58
2023/12/23 02:16:59;;;;;;;3.33;0.77;;;20.60;40.50;;;;;;5062234;28;20033;-58
2023/12/23 02:19:24;;;;;;;2.08;0.55;;;20.60;40.50;;;;;;5058963;28;20025;-54
2023/12/23 02:21:50;;;;;;;1.92;0.60;;;20.60;40.60;;;;;;5039348;28;20099;-56
2023/12/23 02:24:16;;;;;;;1.73;0.55;;;20.60;40.60;;;;;;5058823;28;20032;-57
2023/12/23 02:26:50;;;;;;;2.30;0.70;;;20.50;40.60;;;;;;5040213;28;20344;-57
2023/12/23 02:29:18;;;;;;;1.13;0.40;;;20.60;40.70;;;;;;5047962;28;20035;-53
2023/12/23 02:31:44;;;;;;;1.88;0.38;;;20.60;40.70;;;;;;5025099;28;20038;-56
2023/12/23 02:34:13;;;;;;;1.35;0.50;;;20.50;40.70;;;;;;5064163;28;20017;-53
2023/12/23 02:36:39;;;;;;;1.77;0.45;;;20.60;40.80;;;;;;5039494;28;20017;-57
2023/12/23 02:39:04;;;;;;;1.40;0.50;;;20.60;40.80;;;;;;5063252;28;20120;-56
2023/12/23 02:41:30;;;;;;;1.38;0.30;;;20.50;40.80;;;;;;5063309;28;20499;-57
2023/12/23 02:43:56;;;;;;;1.40;0.70;;;20.50;40.80;;;;;;5044825;28;20339;-53
2023/12/23 02:46:22;;;;;;;1.23;0.40;;;20.50;40.80;;;;;;5057551;28;20016;-58
2023/12/23 02:48:48;;;;;;;1.77;0.60;;;20.50;40.80;;;;;;5061451;28;20029;-55
2023/12/23 02:51:14;;;;;;;0.98;0.30;;;20.50;40.80;;;;;;5041484;28;20356;-56
2023/12/23 02:53:39;;;;;;;1.05;0.50;;;20.50;40.90;;;;;;5041497;28;20052;-56
2023/12/23 02:56:06;;;;;;;0.98;0.35;;;20.50;41.60;;;;;;5059201;28;20016;-57
2023/12/23 02:58:31;;;;;;;0.93;0.40;;;20.50;40.90;;;;;;5047726;28;20071;-56
2023/12/23 03:00:57;;;;;;;1.88;0.43;;;20.50;40.90;;;;;;5036683;28;20467;-58
2023/12/23 03:03:23;;;;;;;1.38;0.68;;;20.50;41.00;;;;;;5060589;28;20423;-56
2023/12/23 03:05:49;;;;;;;1.50;0.50;;;20.50;41.00;;;;;;5041033;28;20039;-58
2023/12/23 03:08:15;;;;;;;0.70;0.30;;;20.50;41.10;;;;;;5027256;28;20485;-57
2023/12/23 03:10:41;;;;;;;2.47;0.70;;;20.50;41.10;;;;;;5039841;28;20021;-57
2023/12/23 03:13:07;;;;;;;1.75;0.60;;;20.50;41.10;;;;;;5060470;28;20029;-55
2023/12/23 03:15:33;;;;;;;0.98;0.47;;;20.50;41.20;;;;;;5041281;28;20130;-55
2023/12/23 03:18:00;;;;;;;0.75;0.45;;;20.40;41.20;;;;;;5043535;28;20047;-56
2023/12/23 03:20:26;;;;;;;0.88;0.50;;;20.50;41.20;;;;;;5039730;28;20025;-56
2023/12/23 03:22:52;;;;;;;2.33;0.50;;;20.50;41.30;;;;;;5041066;28;20033;-57
2023/12/23 03:25:18;;;;;;;0.70;0.40;;;20.40;41.30;;;;;;5054649;28;20040;-54
2023/12/23 03:27:43;;;;;;;0.93;0.40;;;20.50;41.40;;;;;;5056113;28;20024;-54
2023/12/23 03:30:10;;;;;;;1.10;0.45;;;20.50;41.50;;;;;;5061620;28;20033;-54
2023/12/23 03:32:35;;;;;;;1.70;0.50;;;20.40;41.50;;;;;;5045643;28;20053;-55
2023/12/23 03:35:01;;;;;;;1.88;0.60;;;20.50;41.60;;;;;;5039690;28;20383;-55
2023/12/23 03:37:27;;;;;;;1.35;0.40;;;20.50;41.60;;;;;;5056867;28;20044;-53
2023/12/23 03:39:53;;;;;;;0.82;0.40;;;20.50;41.80;;;;;;5058482;28;21597;-55
2023/12/23 03:42:19;;;;;;;1.38;0.43;;;20.40;41.80;;;;;;5043035;28;20064;-56
2023/12/23 03:44:45;;;;;;;1.42;0.32;;;20.40;41.90;;;;;;5055916;28;20388;-58
2023/12/23 03:47:10;;;;;;;1.25;0.40;;;20.40;41.90;;;;;;5042773;28;20032;-55
2023/12/23 03:49:37;;;;;;;2.40;0.57;;;20.50;42.00;;;;;;5059475;28;20024;-54
2023/12/23 03:52:03;;;;;;;1.58;0.50;;;20.40;42.00;;;;;;5055867;28;20119;-55
2023/12/23 03:54:28;;;;;;;1.58;0.50;;;20.40;42.10;;;;;;5019458;28;20488;-54
2023/12/23 03:56:54;;;;;;;1.60;0.80;;;20.40;42.20;;;;;;5061463;28;20035;-53
2023/12/23 03:59:20;;;;;;;1.40;0.57;;;20.40;42.20;;;;;;5042241;28;20510;-53
2023/12/23 04:01:46;;;;;;;1.05;0.35;;;20.40;42.30;;;;;;5053790;28;20132;-59
2023/12/23 04:04:12;;;;;;;1.63;0.55;;;20.40;42.30;;;;;;5023987;28;20030;-59
2023/12/23 04:06:37;;;;;;;2.35;0.63;;;20.40;42.30;;;;;;5057102;28;20028;-55
2023/12/23 04:09:03;;;;;;;1.90;0.68;;;20.40;42.40;;;;;;5053119;28;20064;-55
2023/12/23 04:11:29;;;;;;;2.15;0.57;;;20.40;42.40;;;;;;5036177;28;20448;-57
2023/12/23 04:13:55;;;;;;;1.48;0.50;;;20.40;43.00;;;;;;5025580;28;20075;-56
2023/12/23 04:16:21;;;;;;;1.88;0.70;;;20.40;42.40;;;;;;5056711;28;20024;-56
2023/12/23 04:18:48;;;;;;;1.10;0.43;;;20.40;42.50;;;;;;5035665;28;20518;-57
2023/12/23 04:21:14;;;;;;;1.73;0.52;;;20.40;42.50;;;;;;5036125;28;20045;-53
2023/12/23 04:23:40;;;;;;;2.08;0.65;;;20.40;42.50;;;;;;5040166;28;20364;-54
2023/12/23 04:26:06;;;;;;;2.13;0.63;;;20.40;42.50;;;;;;5038969;28;20347;-56
2023/12/23 04:28:33;;;;;;;1.33;0.50;;;20.40;42.70;;;;;;5059529;28;20032;-55
2023/12/23 04:30:59;;;;;;;2.08;0.60;;;20.40;42.50;;;;;;5041933;28;20125;-54
2023/12/23 04:33:25;;;;;;;1.13;0.43;;;20.40;42.60;;;;;;5045285;28;20116;-55
2023/12/23 04:35:51;;;;;;;1.35;0.50;;;20.30;42.50;;;;;;5040589;28;20036;-57
2023/12/23 04:38:17;;;;;;;1.77;0.65;;;20.30;42.50;;;;;;5036650;28;20049;-55
2023/12/23 04:40:43;;;;;;;1.90;0.60;;;20.30;42.50;;;;;;5032574;28;20062;-58
2023/12/23 04:43:09;;;;;;;1.50;0.55;;;20.30;42.60;;;;;;5038987;28;20037;-57
2023/12/23 04:45:35;;;;;;;1.23;0.52;;;20.30;42.60;;;;;;5038012;28;20036;-52
2023/12/23 04:48:01;;;;;;;2.42;1.00;;;20.30;42.60;;;;;;5040618;28;20033;-55
2023/12/23 04:50:27;;;;;;;1.02;0.43;;;20.30;42.60;;;;;;5040265;28;20029;-55
2023/12/23 04:52:53;;;;;;;1.38;0.60;;;20.30;42.70;;;;;;5040113;28;20076;-55
2023/12/23 04:55:21;;;;;;;1.65;0.70;;;20.30;42.70;;;;;;5046226;28;20080;-52
2023/12/23 04:57:48;;;;;;;1.15;0.50;;;20.20;42.70;;;;;;5038540;28;20022;-55
2023/12/23 05:00:15;;;;;;;1.35;0.60;;;20.20;42.70;;;;;;5041285;28;20017;-55
2023/12/23 05:02:41;;;;;;;1.67;0.52;;;20.20;42.80;;;;;;5041090;28;20041;-56
2023/12/23 05:05:07;;;;;;;0.82;0.43;;;20.20;42.80;;;;;;5038386;28;20068;-57
2023/12/23 05:07:33;;;;;;;1.40;0.63;;;20.20;42.80;;;;;;5044416;28;20100;-57
2023/12/23 05:09:59;;;;;;;0.50;0.30;;;20.20;42.90;;;;;;5039468;28;20026;-57
2023/12/23 05:12:25;;;;;;;2.08;0.57;;;20.20;42.90;;;;;;5032856;28;20029;-55
2023/12/23 05:14:53;;;;;;;1.27;0.30;;;20.20;42.90;;;;;;5021121;28;20060;-55
2023/12/23 05:17:19;;;;;;;2.13;0.55;;;20.20;42.90;;;;;;5038694;28;20030;-56
2023/12/23 05:19:47;;;;;;;0.63;0.30;;;20.10;42.90;;;;;;5039041;28;20357;-55
2023/12/23 05:22:13;;;;;;;2.15;0.60;;;20.20;43.00;;;;;;5038407;28;20044;-56
2023/12/23 05:24:41;;;;;;;1.55;0.50;;;20.10;42.90;;;;;;5045422;28;20467;-56
2023/12/23 05:27:07;;;;;;;2.15;0.70;;;20.10;42.90;;;;;;5037039;28;20026;-55
2023/12/23 05:29:33;;;;;;;1.50;0.60;;;20.10;42.90;;;;;;5039628;28;20400;-57
2023/12/23 05:32:03;;;;;;;1.13;0.50;;;20.10;42.90;;;;;;5041085;28;20041;-57
2023/12/23 05:34:28;;;;;;;2.92;0.65;;;20.10;42.90;;;;;;5045958;28;20029;-55
2023/12/23 05:36:54;;;;;;;1.88;0.68;;;20.10;42.90;;;;;;5042227;28;20123;-54
2023/12/23 05:39:20;;;;;;;0.68;0.40;;;20.10;43.00;;;;;;5056806;28;20032;-55
2023/12/23 05:41:46;;;;;;;1.73;0.50;;;20.10;43.00;;;;;;5057379;28;20044;-56
2023/12/23 05:44:11;;;;;;;1.50;0.60;;;20.10;43.00;;;;;;5061767;28;20111;-56
2023/12/23 05:46:37;;;;;;;1.20;0.57;;;20.10;43.00;;;;;;5038177;28;20025;-54
2023/12/23 05:49:03;;;;;;;1.88;0.52;;;20.10;43.00;;;;;;5058549;28;20120;-57
2023/12/23 05:51:29;;;;;;;0.90;0.50;;;20.10;43.00;;;;;;5059241;28;20028;-53
2023/12/23 05:53:55;;;;;;;1.70;0.60;;;20.00;43.00;;;;;;5058745;28;20024;-54
2023/12/23 05:56:21;;;;;;;1.58;0.60;;;20.00;43.00;;;;;;5039947;28;20033;-55
2023/12/23 05:58:46;;;;;;;1.40;0.50;;;20.00;43.00;;;;;;5057488;28;20517;-58
2023/12/23 06:01:12;;;;;;;2.15;0.70;;;20.00;43.10;;;;;;5059377;28;20039;-56
2023/12/23 06:03:38;;;;;;;2.20;0.80;;;20.00;43.10;;;;;;5056046;28;20108;-54
2023/12/23 06:06:04;;;;;;;1.95;0.60;;;20.00;43.10;;;;;;5060149;28;20134;-53
2023/12/23 06:08:31;;;;;;;2.58;0.70;;;20.00;43.10;;;;;;5059573;28;20032;-54
2023/12/23 06:10:56;;;;;;;1.33;0.50;;;20.00;43.20;;;;;;5059152;28;20108;-57
2023/12/23 06:13:22;;;;;;;2.10;0.60;;;20.00;43.20;;;;;;5037785;28;20151;-53
2023/12/23 06:15:48;;;;;;;1.45;0.60;;;20.00;43.30;;;;;;5057668;28;20024;-54
2023/12/23 06:18:14;;;;;;;1.70;0.70;;;20.00;43.30;;;;;;5054762;28;20029;-56
2023/12/23 06:20:40;;;;;;;1.65;0.52;;;20.00;43.30;;;;;;5060119;28;20033;-54
2023/12/23 06:23:05;;;;;;;2.53;0.70;;;20.00;43.30;;;;;;5056099;28;20020;-54
2023/12/23 06:25:32;;;;;;;1.98;0.68;;;20.00;43.40;;;;;;5056314;28;20094;-54
2023/12/23 06:27:58;;;;;;;1.92;0.70;;;20.00;43.40;;;;;;5058979;28;20463;-57
2023/12/23 06:30:24;;;;;;;1.88;0.52;;;19.90;43.40;;;;;;5056015;28;20100;-56
2023/12/23 06:32:50;;;;;;;2.50;0.57;;;20.00;43.50;;;;;;5055142;28;20116;-52
2023/12/23 06:35:18;;;;;;;1.27;0.55;;;20.00;43.50;;;;;;5055717;28;20033;-52
2023/12/23 06:37:44;;;;;;;2.13;0.70;;;19.90;43.50;;;;;;5054741;28;20460;-56
2023/12/23 06:40:10;;;;;;;1.85;0.70;;;19.90;43.50;;;;;;5057974;28;20045;-56
2023/12/23 06:42:36;;;;;;;1.42;0.50;;;19.90;43.50;;;;;;5060538;28;20048;-53
2023/12/23 06:45:03;;;;;;;1.00;0.45;;;20.00;43.60;;;;;;5058162;28;20317;-55
2023/12/23 06:47:28;;;;;;;1.95;0.70;;;19.90;43.60;;;;;;5057702;28;20060;-56
2023/12/23 06:49:54;;;;;;;2.33;0.68;;;19.90;43.60;;;;;;5056694;28;20037;-55
2023/12/23 06:52:20;;;;;;;2.10;0.60;;;19.90;43.60;;;;;;5057944;28;20035;-56
2023/12/23 06:54:46;;;;;;;1.70;0.70;;;19.90;43.60;;;;;;5059936;28;20029;-54
2023/12/23 06:57:11;;;;;;;1.77;0.60;;;19.90;43.70;;;;;;5056068;28;20392;-55
2023/12/23 06:59:37;;;;;;;3.00;0.90;;;19.90;43.70;;;;;;5058615;28;20074;-57
2023/12/23 07:02:03;;;;;;;1.58;0.70;;;19.90;43.70;;;;;;5053956;28;20041;-54
2023/12/23 07:04:29;;;;;;;2.63;0.80;;;19.90;43.70;;;;;;5060422;28;20020;-57
2023/12/23 07:06:55;;;;;;;1.52;0.47;;;19.90;43.90;;;;;;5041982;28;20050;-56
2023/12/23 07:09:20;;;;;;;1.42;0.70;;;19.90;43.80;;;;;;5054631;28;20067;-58
2023/12/23 07:11:46;;;;;;;2.47;0.68;;;19.80;43.80;;;;;;5054186;28;20048;-56
2023/12/23 07:14:12;;;;;;;1.58;0.60;;;19.80;43.80;;;;;;5036147;28;20024;-55
2023/12/23 07:16:39;;;;;;;1.25;0.60;;;19.80;43.80;;;;;;5056808;28;20102;-55
2023/12/23 07:19:05;;;;;;;1.80;0.60;;;19.80;43.90;;;;;;5055705;28;20360;-50
2023/12/23 07:21:31;;;;;;;2.13;0.60;;;19.80;43.90;;;;;;5054459;28;20051;-56
2023/12/23 07:23:57;;;;;;;1.38;0.55;;;19.80;43.90;;;;;;5058871;28;20106;-55
2023/12/23 07:26:22;;;;;;;1.88;0.55;;;19.80;43.90;;;;;;5057526;28;20025;-55
2023/12/23 07:28:48;;;;;;;0.93;0.50;;;19.80;44.00;;;;;;5056437;28;20099;-56
2023/12/23 07:31:14;;;;;;;2.05;0.65;;;19.80;44.00;;;;;;5063889;28;20028;-56
2023/12/23 07:33:40;;;;;;;2.10;0.90;;;19.80;44.00;;;;;;5064851;28;20121;-53
2023/12/23 07:36:07;;;;;;;2.00;0.77;;;19.80;44.00;;;;;;5066599;28;20020;-56
2023/12/23 07:38:33;;;;;;;1.85;0.60;;;19.80;44.00;;;;;;5064181;28;20128;-56
2023/12/23 07:40:58;;;;;;;1.58;0.52;;;19.80;44.10;;;;;;5046050;28;20115;-56
2023/12/23 07:43:25;;;;;;;2.15;0.70;;;19.80;44.10;;;;;;5063146;28;20035;-58
2023/12/23 07:45:50;;;;;;;1.58;0.63;;;19.80;44.10;;;;;;5064865;28;20039;-56
2023/12/23 07:48:16;;;;;;;2.35;0.82;;;19.80;44.10;;;;;;5065306;28;20402;-54
2023/12/23 07:50:42;;;;;;;1.75;0.60;;;19.80;44.10;;;;;;5065735;28;20048;-57
2023/12/23 07:53:08;;;;;;;1.67;0.50;;;19.80;44.10;;;;;;5065966;28;20039;-53
2023/12/23 07:55:34;;;;;;;2.38;0.73;;;19.70;44.00;;;;;;5065230;28;20054;-52
2023/12/23 07:58:00;;;;;;;1.85;0.60;;;19.80;44.10;;;;;;5055895;28;20035;-56
2023/12/23 08:00:27;;;;;;;2.25;0.73;;;19.70;44.10;;;;;;5019112;28;20097;-60
2023/12/23 08:02:53;;;;;;;1.95;0.90;;;19.70;44.10;;;;;;5044947;28;20056;-53
2023/12/23 08:05:19;;;;;;;2.45;0.68;;;19.80;44.20;;;;;;5055011;28;20063;-58
2023/12/23 08:07:47;;;;;;;3.40;0.90;;;19.80;44.20;;;;;;5034700;28;20032;-59
2023/12/23 08:10:17;;;;;;;2.30;0.73;;;19.80;44.80;;;;;;5041298;28;20125;-61
2023/12/23 08:12:46;;;;;;;2.85;0.80;;;19.80;44.10;;;;;;5039261;28;20156;-59
2023/12/23 08:15:15;;;;;;;4.75;0.80;;;19.80;44.10;;;;;;5053726;28;20038;-61
2023/12/23 08:17:45;;;;;;;2.75;0.57;;;19.90;44.20;;;;;;5053911;28;20029;-61
2023/12/23 08:20:11;;;;;;;1.30;0.65;;;19.90;44.10;;;;;;5033800;28;20090;-56
2023/12/23 08:22:36;;;;;;;2.17;0.73;;;20.00;44.20;;;;;;5052725;28;20124;-57
2023/12/23 08:25:02;;;;;;;1.08;0.50;;;19.90;44.10;;;;;;5035763;28;20119;-56
2023/12/23 08:27:28;;;;;;;2.38;0.65;;;20.00;44.10;;;;;;5054194;28;20029;-57
2023/12/23 08:29:54;;;;;;;1.50;0.73;;;20.00;44.00;;;;;;5054513;28;20032;-55
2023/12/23 08:32:20;;;;;;;1.35;0.50;;;20.00;44.00;;;;;;5054806;28;20025;-57
2023/12/23 08:34:49;;;;;;;1.70;0.60;;;20.10;44.00;;;;;;5054268;28;20025;-56
2023/12/23 08:37:15;;;;;;;1.85;0.57;;;20.10;43.90;;;;;;5055088;28;20080;-57
2023/12/23 08:39:40;;;;;;;2.10;0.65;;;20.10;43.90;;;;;;5054920;28;20107;-59
2023/12/23 08:42:06;;;;;;;1.55;0.82;;;20.20;43.90;;;;;;5055500;28;20055;-59
2023/12/23 08:44:32;;;;;;;2.60;0.88;;;20.20;43.30;;;;;;5055090;28;20025;-57
2023/12/23 08:46:58;;;;;;;2.25;0.90;;;20.30;43.90;;;;;;5054764;28;20391;-57
2023/12/23 08:49:23;;;;;;;2.15;0.88;;;20.30;43.80;;;;;;5036722;28;20037;-57
2023/12/23 08:51:49;;;;;;;2.40;0.60;;;20.30;43.80;;;;;;5054663;28;20064;-59
2023/12/23 08:54:15;;;;;;;1.13;0.52;;;20.30;43.70;;;;;;5054183;28;20455;-59
2023/12/23 08:56:41;;;;;;;1.17;0.52;;;20.40;43.70;;;;;;5053612;28;20029;-59
2023/12/23 08:59:07;;;;;;;3.80;0.90;;;20.40;43.70;;;;;;5053591;28;20017;-59
2023/12/23 09:01:32;;;;;;;1.60;0.60;;;20.50;43.60;;;;;;5054272;28;20040;-56
2023/12/23 09:03:58;;;;;;;4.00;0.80;;;20.40;43.50;;;;;;5046401;28;20116;-56
2023/12/23 09:06:25;;;;;;;6.00;1.13;;;20.50;43.50;;;;;;5043701;28;20037;-58
2023/12/23 09:08:54;;;;;;;2.63;0.80;;;20.50;43.40;;;;;;5049701;28;20049;-57
2023/12/23 09:11:20;;;;;;;2.92;0.80;;;20.50;43.40;;;;;;5030562;28;20033;-58
2023/12/23 09:13:45;;;;;;;3.40;0.80;;;20.50;43.40;;;;;;5053368;28;20024;-57
2023/12/23 09:16:11;;;;;;;2.10;0.77;;;20.60;43.40;;;;;;5052919;28;20321;-59
2023/12/23 09:18:37;;;;;;;2.53;0.73;;;20.60;43.40;;;;;;5052850;28;20029;-59
2023/12/23 09:21:03;;;;;;;2.30;0.85;;;20.60;43.30;;;;;;5035526;28;20120;-57
2023/12/23 09:23:29;;;;;;;1.45;0.68;;;20.60;43.30;;;;;;5053030;28;20029;-58
2023/12/23 09:25:54;;;;;;;1.98;0.60;;;20.60;43.30;;;;;;5052710;28;20033;-58
2023/12/23 09:28:21;;;;;;;2.38;0.88;;;20.60;43.20;;;;;;5053114;28;20336;-58
2023/12/23 09:30:47;;;;;;;1.85;0.60;;;20.60;43.20;;;;;;5053230;28;20021;-56
2023/12/23 09:33:13;;;;;;;0.98;0.60;;;20.60;43.20;;;;;;5053940;28;20021;-59
2023/12/23 09:35:39;;;;;;;1.65;0.70;;;20.60;43.20;;;;;;5056239;28;20231;-55
2023/12/23 09:38:04;;;;;;;2.30;0.93;;;20.60;43.10;;;;;;5046420;28;20151;-60
2023/12/23 09:40:30;;;;;;;1.38;0.47;;;20.60;43.20;;;;;;5058584;28;20035;-59
2023/12/23 09:42:57;;;;;;;2.13;0.68;;;20.60;43.20;;;;;;5057416;28;20032;-51
2023/12/23 09:45:24;;;;;;;1.35;0.50;;;20.60;43.30;;;;;;5056587;28;20186;-55
2023/12/23 09:47:50;;;;;;;2.00;0.60;;;20.60;43.30;;;;;;5056233;28;20024;-57
2023/12/23 09:50:15;;;;;;;3.88;0.63;;;20.60;43.40;;;;;;5056280;28;20035;-56
2023/12/23 09:52:42;;;;;;;1.98;0.52;;;20.60;43.40;;;;;;5038697;28;20467;-58
2023/12/23 09:55:10;;;;;;;3.38;0.70;;;20.60;43.40;;;;;;5056469;28;20071;-58
2023/12/23 09:57:36;;;;;;;3.08;0.90;;;20.70;43.60;;;;;;5053269;28;20059;-60
2023/12/23 10:00:03;;;;;;;1.55;0.68;;;20.60;43.50;;;;;;5055874;28;20333;-59
2023/12/23 10:02:37;;;;;;;2.05;0.50;;;20.60;43.50;;;;;;5055830;28;20033;-59
2023/12/23 10:05:03;;;;;;;2.80;0.60;;;20.60;43.40;;;;;;5056110;28;20021;-59
2023/12/23 10:07:29;;;;;;;1.48;0.60;;;20.60;43.50;;;;;;5055637;28;20096;-60
2023/12/23 10:09:55;;;;;;;3.33;0.70;;;20.60;43.50;;;;;;5055893;28;20059;-59
2023/12/23 10:12:21;;;;;;;1.10;0.50;;;20.60;43.50;;;;;;5056091;28;20021;-59
2023/12/23 10:14:50;;;;;;;3.35;0.90;;;20.60;43.40;;;;;;5056246;28;20044;-58
2023/12/23 10:17:19;;;;;;;1.75;0.52;;;20.60;43.40;;;;;;5037877;28;20025;-59
2023/12/23 10:19:48;;;;;;;2.28;0.60;;;20.60;43.40;;;;;;5056203;28;20029;-59
2023/12/23 10:22:16;;;;;;;2.30;0.60;;;20.60;43.40;;;;;;5037642;28;20040;-59
2023/12/23 10:24:42;;;;;;;3.33;0.70;;;20.60;43.40;;;;;;5038300;28;20028;-59
2023/12/23 10:27:07;;;;;;;1.90;0.60;;;20.60;43.40;;;;;;5055819;28;20021;-58
2023/12/23 10:29:37;;;;;;;3.50;0.82;;;20.60;43.40;;;;;;5055925;28;20087;-57
2023/12/23 10:32:07;;;;;;;1.15;0.57;;;20.60;43.40;;;;;;5055940;28;20017;-59
2023/12/23 10:34:58;;;;;;;1.60;0.65;;;20.60;43.30;;;;;;5055327;28;20032;-59
2023/12/23 10:37:25;;;;;;;2.67;0.80;;;20.60;43.30;;;;;;5036501;28;20395;-59
2023/12/23 10:40:00;;;;;;;1.83;0.88;;;20.60;43.30;;;;;;5055920;28;20021;-60
2023/12/23 10:42:28;;;;;;;1.38;0.60;;;20.60;43.30;;;;;;5056005;28;20040;-59
2023/12/23 10:44:57;;;;;;;2.03;0.70;;;20.60;43.50;;;;;;5054961;28;20044;-59
2023/12/23 10:47:25;;;;;;;2.63;0.70;;;20.60;43.40;;;;;;5035999;28;20036;-61
2023/12/23 10:49:52;;;;;;;5.30;0.90;;;20.60;43.40;;;;;;5037906;28;20021;-56
2023/12/23 10:52:19;;;;;;;3.25;0.73;;;20.60;43.40;;;;;;5055316;28;20032;-56
2023/12/23 10:54:45;;;;;;;1.55;0.60;;;20.60;43.40;;;;;;5053071;28;20017;-59
2023/12/23 10:57:13;;;;;;;1.70;0.70;;;20.60;43.50;;;;;;5055122;28;20052;-59
2023/12/23 10:59:39;;;;;;;1.73;0.57;;;20.50;43.40;;;;;;5037713;28;20021;-59
2023/12/23 11:02:15;;;;;;;4.25;0.90;;;20.60;43.60;;;;;;5054841;28;20075;-59
2023/12/23 11:04:48;;;;;;;1.92;0.85;;;20.50;43.50;;;;;;5037593;28;20108;-59
2023/12/23 11:07:16;;;;;;;1.17;0.50;;;20.50;43.50;;;;;;5052788;28;20044;-60
2023/12/23 11:09:45;;;;;;;2.35;0.77;;;20.60;43.60;;;;;;5051281;28;20060;-59
2023/12/23 11:12:12;;;;;;;1.50;0.50;;;20.50;43.50;;;;;;5054694;28;20025;-60
2023/12/23 11:14:37;;;;;;;1.92;0.75;;;20.50;43.50;;;;;;5054801;28;20029;-59
2023/12/23 11:17:23;;;;;;;2.20;0.65;;;20.50;43.50;;;;;;5054517;28;20098;-60
2023/12/23 11:19:48;;;;;;;2.55;0.68;;;20.50;43.40;;;;;;5053887;28;20024;-58
2023/12/23 11:22:27;;;;;;;2.03;0.70;;;20.50;43.40;;;;;;5054350;28;20044;-60
2023/12/23 11:24:54;;;;;;;1.48;0.70;;;20.50;43.40;;;;;;5054302;28;20418;-59
2023/12/23 11:27:31;;;;;;;1.83;0.55;;;20.50;43.40;;;;;;5054657;28;20033;-61
2023/12/23 11:30:15;;;;;;;1.63;0.70;;;20.50;43.30;;;;;;5054793;28;20421;-59
2023/12/23 11:32:43;;;;;;;1.33;0.55;;;20.50;43.30;;;;;;5037529;28;20352;-59
2023/12/23 11:35:14;;;;;;;1.45;0.65;;;20.50;43.30;;;;;;5054576;28;20024;-55
2023/12/23 11:37:54;;;;;;;2.28;0.80;;;20.50;43.30;;;;;;5054251;28;20064;-55
2023/12/23 11:40:23;;;;;;;1.58;0.55;;;20.50;43.30;;;;;;5054355;28;20037;-62
2023/12/23 11:42:49;;;;;;;2.03;0.50;;;20.60;43.40;;;;;;5052176;28;20048;-60
2023/12/23 11:45:17;;;;;;;1.52;0.50;;;20.60;43.50;;;;;;5053911;28;20063;-60
2023/12/23 11:47:43;;;;;;;1.90;0.60;;;20.60;43.50;;;;;;5036315;28;20576;-61
2023/12/23 11:50:09;;;;;;;1.85;0.50;;;20.60;43.50;;;;;;5054755;28;20031;-57
2023/12/23 11:52:35;;;;;;;2.75;0.60;;;20.70;43.50;;;;;;5052830;28;20024;-60
2023/12/23 11:55:03;;;;;;;1.90;0.50;;;20.70;43.40;;;;;;5053833;28;20032;-61
2023/12/23 11:57:30;;;;;;;1.10;0.50;;;20.80;43.40;;;;;;5050123;28;20047;-61
2023/12/23 11:59:57;;;;;;;1.60;0.45;;;20.80;43.30;;;;;;5034712;28;20028;-60
2023/12/23 12:02:23;;;;;;;2.08;0.57;;;20.90;43.20;;;;;;5052587;28;20040;-60
2023/12/23 12:04:48;;;;;;;1.38;0.50;;;20.90;43.20;;;;;;5038279;28;20120;-58
2023/12/23 12:07:14;;;;;;;1.38;0.40;;;20.90;43.20;;;;;;5052500;28;20033;-61
2023/12/23 12:09:41;;;;;;;2.33;0.60;;;20.90;43.20;;;;;;5053278;28;20025;-60
2023/12/23 12:12:07;;;;;;;2.17;0.70;;;20.90;43.30;;;;;;5052831;28;20348;-60
2023/12/23 12:14:33;;;;;;;1.52;0.63;;;20.90;43.40;;;;;;5054284;28;20472;-59
2023/12/23 12:16:59;;;;;;;0.95;0.50;;;20.90;43.40;;;;;;5052288;28;20025;-60
2023/12/23 12:19:37;;;;;;;2.35;0.60;;;20.90;43.40;;;;;;5053413;28;20155;-61
2023/12/23 12:22:10;;;;;;;2.50;0.60;;;20.80;43.30;;;;;;5056066;28;20441;-58
2023/12/23 12:24:37;;;;;;;2.47;0.60;;;20.90;43.50;;;;;;5056583;28;20037;-59
2023/12/23 12:27:03;;;;;;;1.88;0.50;;;20.80;43.20;;;;;;5055650;28;20016;-62
2023/12/23 12:29:30;;;;;;;1.20;0.50;;;20.90;43.20;;;;;;5033131;28;20182;-60
2023/12/23 12:31:59;;;;;;;1.80;0.55;;;20.80;43.10;;;;;;5035486;28;20475;-60
2023/12/23 12:34:27;;;;;;;1.25;0.50;;;20.90;43.20;;;;;;5036369;28;20072;-59
2023/12/23 12:36:53;;;;;;;1.63;0.45;;;20.90;43.10;;;;;;5059425;28;20134;-58
2023/12/23 12:39:19;;;;;;;1.75;0.50;;;20.80;43.00;;;;;;5064751;28;20367;-60
2023/12/23 12:41:47;;;;;;;1.60;0.40;;;20.90;43.00;;;;;;5054425;28;20029;-60
2023/12/23 12:44:13;;;;;;;2.72;0.52;;;20.80;43.00;;;;;;5063533;28;20436;-59
2023/12/23 12:46:39;;;;;;;0.82;0.30;;;20.90;43.10;;;;;;5056727;28;20027;-57